Time;durP1;ratioP1;P1;durP2;ratioP2;P2;SDS_P1;SDS_P2;PMS_P1;PMS_P2;Temp;Humidity;BMP_temperature;BMP_pressure;BME280_temperature;BME280_humidity;BME280_pressure;Samples;Min_cycle;Max_cycle;Signal;HPM_P1;HPM_P2
2022/03/26 00:01:30;;;;;;;40.20;21.60;;;;;;;2.76;69.66;99999.67;1803209;79;21001;-73
2022/03/26 00:03:58;;;;;;;33.78;19.42;;;;;;;2.74;69.66;100002.38;1802474;79;21441;-71
2022/03/26 00:06:28;;;;;;;42.55;20.57;;;;;;;2.70;69.66;99997.15;1802615;79;20976;-70
2022/03/26 00:08:55;;;;;;;39.25;21.75;;;;;;;2.67;69.74;99995.77;1802479;79;21003;-72
2022/03/26 00:11:23;;;;;;;37.03;22.05;;;;;;;2.65;69.85;99990.59;1802381;79;20920;-69
2022/03/26 00:13:49;;;;;;;37.95;21.35;;;;;;;2.63;69.87;99983.74;1802319;79;20963;-72
2022/03/26 00:16:18;;;;;;;39.90;21.42;;;;;;;2.61;69.98;99984.56;1807633;79;20991;-73
2022/03/26 00:18:51;;;;;;;35.83;20.55;;;;;;;2.60;70.05;99986.45;1807694;79;20979;-69
2022/03/26 00:21:20;;;;;;;39.45;21.45;;;;;;;2.59;70.06;99975.82;1812681;79;20963;-71
2022/03/26 00:23:51;;;;;;;38.23;19.57;;;;;;;2.55;70.12;99977.70;1812254;79;20860;-69
2022/03/26 00:26:17;;;;;;;46.92;22.50;;;;;;;2.54;70.18;99977.40;1812691;79;20947;-69
2022/03/26 00:28:45;;;;;;;32.78;19.23;;;;;;;2.52;70.20;99971.94;1812648;79;20959;-71
2022/03/26 00:31:12;;;;;;;37.45;21.12;;;;;;;2.52;70.31;99971.94;1812837;79;21448;-68
2022/03/26 00:33:44;;;;;;;34.45;19.73;;;;;;;2.51;70.48;99973.00;1812625;79;21142;-69
2022/03/26 00:36:13;;;;;;;33.85;19.92;;;;;;;2.50;70.45;99965.39;1812742;79;20848;-71
2022/03/26 00:38:45;;;;;;;36.33;20.55;;;;;;;2.51;70.47;99961.59;1811887;79;21284;-70
2022/03/26 00:41:17;;;;;;;34.50;19.80;;;;;;;2.50;70.50;99955.05;1812650;79;20872;-67
2022/03/26 00:43:46;;;;;;;35.10;18.20;;;;;;;2.49;70.35;99956.94;1808334;79;20931;-69
2022/03/26 00:46:15;;;;;;;29.32;18.00;;;;;;;2.47;70.38;99950.95;1812725;79;21266;-69
2022/03/26 00:48:43;;;;;;;35.10;19.60;;;;;;;2.46;70.33;99949.28;1812811;79;20852;-71
2022/03/26 00:51:18;;;;;;;34.38;18.77;;;;;;;2.42;70.43;99947.61;1812026;79;20863;-66
2022/03/26 00:53:47;;;;;;;42.15;18.62;;;;;;;2.42;70.56;99944.09;1812426;79;20979;-71
2022/03/26 00:56:17;;;;;;;35.88;19.25;;;;;;;2.42;70.62;99948.17;1808367;79;20967;-71
2022/03/26 00:58:43;;;;;;;35.30;18.98;;;;;;;2.42;70.61;99948.17;1812117;79;21207;-71
2022/03/26 01:01:17;;;;;;;36.20;19.12;;;;;;;2.42;70.48;99944.89;1807999;79;20968;-72
2022/03/26 01:03:43;;;;;;;41.25;21.23;;;;;;;2.41;70.37;99943.26;1812660;79;20899;-71
2022/03/26 01:06:18;;;;;;;40.65;20.88;;;;;;;2.37;70.34;99940.75;1807754;79;20868;-69
2022/03/26 01:08:46;;;;;;;32.57;19.63;;;;;;;2.36;70.41;99936.41;1813086;79;20992;-70
2022/03/26 01:11:15;;;;;;;34.55;18.20;;;;;;;2.33;70.42;99940.99;1812259;79;21138;-72
2022/03/26 01:13:55;;;;;;;34.25;18.75;;;;;;;2.31;70.41;99934.45;1807883;79;21018;-69
2022/03/26 01:16:25;;;;;;;31.17;18.25;;;;;;;2.28;70.43;99928.16;1812701;79;20877;-71
2022/03/26 01:18:58;;;;;;;31.80;17.82;;;;;;;2.28;70.60;99928.70;1812559;79;20853;-70
2022/03/26 01:21:25;;;;;;;36.65;19.45;;;;;;;2.29;70.68;99923.53;1813023;79;20919;-70
2022/03/26 01:23:52;;;;;;;35.98;18.75;;;;;;;2.31;70.61;99922.74;1787673;79;21724;-68
2022/03/26 01:26:19;;;;;;;37.75;18.55;;;;;;;2.31;70.55;99917.30;1812506;79;20939;-69
2022/03/26 01:28:48;;;;;;;34.67;18.02;;;;;;;2.33;70.44;99915.69;1768663;79;20984;-67
2022/03/26 01:31:20;;;;;;;31.90;18.70;;;;;;;2.29;70.18;99915.37;1812591;79;20876;-69
2022/03/26 01:33:49;;;;;;;35.83;19.42;;;;;;;2.25;70.13;99915.61;1812365;79;21022;-69
2022/03/26 01:36:17;;;;;;;34.15;18.57;;;;;;;2.21;70.07;99916.66;1812538;79;21774;-72
2022/03/26 01:38:46;;;;;;;31.85;17.52;;;;;;;2.17;69.99;99912.78;1812493;79;20990;-69
2022/03/26 01:41:20;;;;;;;36.85;20.05;;;;;;;2.14;70.00;99918.73;1812714;79;21445;-70
2022/03/26 01:43:50;;;;;;;33.28;17.50;;;;;;;2.11;70.14;99910.56;1812660;79;20943;-71
2022/03/26 01:46:19;;;;;;;32.65;19.40;;;;;;;2.11;70.11;99906.48;1812406;79;21022;-70
2022/03/26 01:48:48;;;;;;;35.38;18.17;;;;;;;2.10;70.04;99910.27;1812532;79;20920;-70
2022/03/26 01:51:19;;;;;;;32.10;18.82;;;;;;;2.10;70.03;99902.66;1811037;79;21504;-72
2022/03/26 01:53:51;;;;;;;40.52;18.87;;;;;;;2.11;70.06;99901.58;1788901;79;20990;-67
2022/03/26 01:56:21;;;;;;;34.48;18.67;;;;;;;2.12;70.09;99895.05;1780218;80;20958;-70
2022/03/26 01:58:52;;;;;;;35.45;19.23;;;;;;;2.15;70.06;99896.73;1780827;80;21015;-70
2022/03/26 02:01:23;;;;;;;52.80;25.23;;;;;;;2.17;69.94;99893.75;1752192;80;21247;-72
2022/03/26 02:03:52;;;;;;;41.23;21.50;;;;;;;2.21;69.72;99880.47;1779984;80;20820;-72
2022/03/26 02:06:22;;;;;;;40.48;19.40;;;;;;;2.24;69.58;99884.87;1780601;80;21480;-71
2022/03/26 02:08:53;;;;;;;35.10;17.57;;;;;;;2.23;69.32;99883.23;1780520;80;20993;-70
2022/03/26 02:11:21;;;;;;;27.85;16.02;;;;;;;2.23;69.28;99887.84;1780378;80;21054;-69
2022/03/26 02:13:54;;;;;;;32.73;17.10;;;;;;;2.25;69.29;99874.82;1780607;80;21133;-72
2022/03/26 02:16:29;;;;;;;34.70;17.95;;;;;;;2.27;68.97;99876.75;1780657;80;21002;-71
2022/03/26 02:18:57;;;;;;;26.23;16.07;;;;;;;2.30;68.64;99872.16;1780530;80;21023;-71
2022/03/26 02:21:27;;;;;;;34.15;16.65;;;;;;;2.32;68.34;99865.90;1780754;80;21512;-71
2022/03/26 02:23:57;;;;;;;32.63;17.52;;;;;;;2.34;68.17;99868.39;1780516;79;20982;-71
2022/03/26 02:26:26;;;;;;;31.70;16.87;;;;;;;2.37;67.94;99867.88;1780520;80;21801;-71
2022/03/26 02:28:55;;;;;;;33.90;17.65;;;;;;;2.39;67.68;99863.80;1780401;80;20860;-72
2022/03/26 02:31:26;;;;;;;29.98;16.82;;;;;;;2.40;67.39;99862.74;1780929;80;20955;-70
2022/03/26 02:33:52;;;;;;;29.82;17.12;;;;;;;2.41;67.15;99858.93;1780465;80;20971;-73
2022/03/26 02:36:19;;;;;;;27.98;16.55;;;;;;;2.41;66.89;99860.30;1779898;80;20919;-69
2022/03/26 02:38:56;;;;;;;29.52;17.20;;;;;;;2.42;66.86;99851.05;1780598;80;21027;-70
2022/03/26 02:41:26;;;;;;;27.30;15.80;;;;;;;2.42;66.83;99859.77;1780619;80;20991;-68
2022/03/26 02:43:59;;;;;;;21.82;12.90;;;;;;;2.40;66.86;99854.58;1777934;80;21007;-71
2022/03/26 02:46:29;;;;;;;27.22;16.15;;;;;;;2.40;66.92;99851.03;1780117;80;20916;-71
2022/03/26 02:48:58;;;;;;;27.13;15.93;;;;;;;2.40;66.86;99843.70;1780400;80;21018;-70
2022/03/26 02:51:27;;;;;;;26.35;15.80;;;;;;;2.43;66.71;99836.91;1780471;80;21028;-71
2022/03/26 02:53:57;;;;;;;34.73;17.02;;;;;;;2.45;66.54;99833.93;1780502;80;20903;-70
2022/03/26 02:56:27;;;;;;;35.35;16.45;;;;;;;2.47;66.30;99834.50;1780878;80;21449;-69
2022/03/26 02:58:55;;;;;;;34.92;17.30;;;;;;;2.48;66.16;99832.87;1780452;80;21010;-70
2022/03/26 03:01:29;;;;;;;32.13;17.17;;;;;;;2.48;65.83;99834.23;1779934;80;20970;-71
2022/03/26 03:03:56;;;;;;;31.10;17.27;;;;;;;2.50;65.72;99832.62;1780273;80;21093;-69
2022/03/26 03:06:25;;;;;;;31.57;15.20;;;;;;;2.50;65.51;99833.45;1780411;80;21465;-69
2022/03/26 03:08:55;;;;;;;26.00;15.75;;;;;;;2.51;65.41;99831.53;1780693;80;20944;-72
2022/03/26 03:11:23;;;;;;;29.85;15.85;;;;;;;2.50;65.33;99823.09;1780727;80;20998;-68
2022/03/26 03:13:51;;;;;;;26.68;15.30;;;;;;;2.49;65.35;99822.83;1780404;80;20903;-72
2022/03/26 03:16:22;;;;;;;28.70;16.90;;;;;;;2.47;65.38;99813.56;1779206;80;20943;-69
2022/03/26 03:18:52;;;;;;;29.80;16.07;;;;;;;2.47;65.39;99811.37;1770877;81;20868;-70
2022/03/26 03:21:19;;;;;;;30.75;16.65;;;;;;;2.47;65.37;99811.37;1770935;81;21027;-67
2022/03/26 03:23:50;;;;;;;32.75;16.93;;;;;;;2.47;65.26;99801.86;1747053;81;21460;-68
2022/03/26 03:26:16;;;;;;;27.48;15.60;;;;;;;2.45;65.27;99801.29;1770840;81;20955;-70
2022/03/26 03:28:43;;;;;;;26.93;16.50;;;;;;;2.45;65.28;99797.20;1770968;81;21777;-72
2022/03/26 03:31:16;;;;;;;26.15;15.18;;;;;;;2.46;65.14;99793.42;1770890;80;20853;-70
2022/03/26 03:33:44;;;;;;;27.10;15.15;;;;;;;2.46;65.14;99797.51;1770763;80;20944;-70
2022/03/26 03:36:15;;;;;;;28.32;16.70;;;;;;;2.45;65.18;99795.84;1766748;81;20947;-71
2022/03/26 03:38:42;;;;;;;31.45;17.45;;;;;;;2.42;65.20;99792.56;1771082;81;20908;-70
2022/03/26 03:41:13;;;;;;;35.08;17.82;;;;;;;2.40;65.10;99792.55;1771003;81;22035;-71
2022/03/26 03:43:47;;;;;;;31.60;17.67;;;;;;;2.36;65.08;99789.52;1770914;80;21460;-72
2022/03/26 03:46:17;;;;;;;29.00;16.93;;;;;;;2.34;65.12;99786.80;1770940;81;20860;-71
2022/03/26 03:48:46;;;;;;;34.65;18.98;;;;;;;2.30;65.31;99780.48;1770905;81;21472;-71
2022/03/26 03:51:15;;;;;;;29.95;17.85;;;;;;;2.30;65.52;99783.77;1770411;81;21261;-72
2022/03/26 03:53:45;;;;;;;34.88;17.65;;;;;;;2.28;65.53;99779.95;1770662;81;21785;-72
2022/03/26 03:56:20;;;;;;;35.08;19.50;;;;;;;2.26;65.63;99780.73;1770730;80;21377;-69
2022/03/26 03:58:48;;;;;;;43.02;20.40;;;;;;;2.25;65.89;99774.20;1771011;81;20931;-70
2022/03/26 04:01:23;;;;;;;36.68;19.73;;;;;;;2.26;66.08;99768.50;1771651;80;21019;-70
2022/03/26 04:03:51;;;;;;;41.00;20.95;;;;;;;2.28;66.17;99766.35;1770996;80;20904;-69
2022/03/26 04:06:19;;;;;;;33.30;18.98;;;;;;;2.28;66.12;99773.15;1771224;80;21137;-70
2022/03/26 04:08:51;;;;;;;35.00;18.98;;;;;;;2.27;66.23;99761.97;1768387;81;21006;-70
2022/03/26 04:11:23;;;;;;;34.18;18.75;;;;;;;2.26;66.38;99758.98;1770922;81;21008;-71
2022/03/26 04:14:02;;;;;;;40.12;20.20;;;;;;;2.28;66.53;99762.80;1768545;81;21038;-72
2022/03/26 04:16:35;;;;;;;31.93;18.12;;;;;;;2.27;66.66;99762.53;1771462;80;21485;-70
2022/03/26 04:19:02;;;;;;;;;;;;;;;2.28;66.88;99760.08;1783151;80;21173;-70
2022/03/26 04:21:31;;;;;;;40.43;19.60;;;;;;;2.31;67.02;99760.92;1780983;80;20092;-71
2022/03/26 04:24:14;;;;;;;41.05;19.92;;;;;;;2.33;67.12;99757.41;1777459;80;21412;-70
2022/03/26 04:26:47;;;;;;;33.98;18.00;;;;;;;2.37;67.35;99753.07;1778899;80;21375;-71
2022/03/26 04:29:14;;;;;;;28.35;17.32;;;;;;;2.40;67.42;99740.87;1753872;80;20941;-67
2022/03/26 04:31:42;;;;;;;34.35;17.73;;;;;;;2.45;67.55;99736.00;1776136;80;21427;-70
2022/03/26 04:34:11;;;;;;;36.05;18.10;;;;;;;2.48;67.59;99732.75;1780528;80;20953;-69
2022/03/26 04:36:40;;;;;;;31.75;17.62;;;;;;;2.54;67.60;99732.53;1781159;80;20992;-70
2022/03/26 04:39:12;;;;;;;32.48;18.87;;;;;;;2.61;67.72;99726.06;1744973;80;20914;-69
2022/03/26 04:41:43;;;;;;;35.35;20.27;;;;;;;2.67;67.58;99726.37;1780749;80;21478;-70
2022/03/26 04:44:10;;;;;;;38.73;19.62;;;;;;;2.73;67.70;99721.23;1780857;80;21462;-70
2022/03/26 04:46:39;;;;;;;41.60;19.57;;;;;;;2.80;67.77;99725.08;1780622;80;20926;-70
2022/03/26 04:49:08;;;;;;;34.25;19.42;;;;;;;2.86;67.65;99715.05;1780808;80;20902;-70
2022/03/26 04:51:43;;;;;;;34.65;18.55;;;;;;;2.94;67.61;99713.19;1752314;80;21569;-68
2022/03/26 04:54:09;;;;;;;39.23;19.12;;;;;;;2.99;67.64;99710.49;1780502;80;20958;-70
2022/03/26 04:56:38;;;;;;;40.55;19.32;;;;;;;3.06;67.62;99706.17;1780578;80;21775;-70
2022/03/26 04:59:07;;;;;;;37.03;19.67;;;;;;;3.13;67.60;99701.84;1780818;80;20982;-70
2022/03/26 05:01:33;;;;;;;35.80;18.62;;;;;;;3.21;67.19;99703.25;1780816;80;20927;-71
2022/03/26 05:04:01;;;;;;;38.38;19.12;;;;;;;3.29;67.12;99706.82;1780871;80;20917;-70
2022/03/26 05:06:29;;;;;;;30.88;17.55;;;;;;;3.35;66.96;99698.93;1780217;80;20872;-71
2022/03/26 05:09:02;;;;;;;33.88;18.57;;;;;;;3.42;66.72;99700.05;1780704;80;20919;-69
2022/03/26 05:11:42;;;;;;;32.73;17.50;;;;;;;3.50;66.93;99709.59;1780558;80;20908;-70
2022/03/26 05:14:10;;;;;;;33.60;19.23;;;;;;;3.56;66.72;99711.27;1780555;80;20958;-73
2022/03/26 05:16:37;;;;;;;32.70;19.00;;;;;;;3.62;66.59;99710.18;1780757;80;21511;-72
2022/03/26 05:19:05;;;;;;;34.80;19.98;;;;;;;3.70;66.16;99706.09;1784248;80;20986;-68
2022/03/26 05:21:33;;;;;;;34.25;18.50;;;;;;;3.79;66.01;99711.05;1784690;79;21769;-72
2022/03/26 05:24:20;;;;;;;32.93;18.42;;;;;;;3.87;65.59;99707.22;1784419;80;20995;-69
2022/03/26 05:26:47;;;;;;;38.15;19.05;;;;;;;3.95;65.48;99696.34;1784427;80;21531;-73
2022/03/26 05:29:25;;;;;;;37.60;17.75;;;;;;;4.04;65.33;99699.35;1784162;80;20923;-72
2022/03/26 05:31:55;;;;;;;34.63;18.15;;;;;;;4.15;64.86;99694.70;1784593;80;20867;-70
2022/03/26 05:34:25;;;;;;;31.15;16.95;;;;;;;4.24;64.28;99690.89;1776371;80;20956;-70
2022/03/26 05:36:53;;;;;;;31.23;17.20;;;;;;;4.31;64.44;99690.08;1784478;80;21389;-71
2022/03/26 05:39:21;;;;;;;33.92;18.35;;;;;;;4.40;63.21;99678.60;1784343;80;21014;-69
2022/03/26 05:41:49;;;;;;;31.00;17.65;;;;;;;4.48;63.43;99675.31;1784495;80;20916;-70
2022/03/26 05:44:16;;;;;;;34.88;18.37;;;;;;;4.58;62.87;99673.94;1784375;80;20966;-70
2022/03/26 05:46:48;;;;;;;28.07;17.45;;;;;;;4.67;62.91;99678.29;1780480;80;20920;-69
2022/03/26 05:49:16;;;;;;;30.82;17.82;;;;;;;4.76;62.46;99671.69;1784435;80;21029;-72
2022/03/26 05:51:47;;;;;;;35.10;17.57;;;;;;;4.86;61.98;99669.50;1784396;80;21453;-71
2022/03/26 05:54:19;;;;;;;36.08;18.23;;;;;;;4.95;61.01;99668.36;1782904;80;20999;-69
2022/03/26 05:56:51;;;;;;;35.55;17.23;;;;;;;5.02;60.97;99663.42;1784111;80;20954;-71
2022/03/26 05:59:14;;;;;;;28.07;16.80;;;;;;;5.11;60.91;99660.39;1784222;80;21247;-72
2022/03/26 06:01:42;;;;;;;30.82;16.20;;;;;;;5.22;60.48;99654.31;1784481;80;20911;-71
2022/03/26 06:04:08;;;;;;;39.15;17.75;;;;;;;5.32;60.13;99645.24;1784346;80;20967;-70
2022/03/26 06:06:38;;;;;;;27.67;16.15;;;;;;;5.42;59.54;99646.30;1784470;80;21570;-69
2022/03/26 06:09:10;;;;;;;30.70;16.77;;;;;;;5.54;59.71;99645.95;1784390;80;20923;-70
2022/03/26 06:11:42;;;;;;;30.82;17.75;;;;;;;5.67;59.98;99637.66;1783918;80;20871;-70
2022/03/26 06:14:19;;;;;;;35.50;16.15;;;;;;;5.83;60.02;99635.07;1783536;80;20958;-71
2022/03/26 06:16:48;;;;;;;29.77;16.42;;;;;;;5.98;58.41;99629.23;1784581;80;20907;-71
2022/03/26 06:19:14;;;;;;;34.58;17.62;;;;;;;6.07;58.34;99631.62;1753233;80;21468;-71
2022/03/26 06:21:41;;;;;;;35.03;17.05;;;;;;;6.19;58.39;99629.08;1780205;79;21110;-70
2022/03/26 06:24:10;;;;;;;31.50;17.60;;;;;;;6.32;57.34;99623.48;1780527;80;21522;-70
2022/03/26 06:26:39;;;;;;;33.55;17.23;;;;;;;6.43;56.74;99622.84;1780421;80;20911;-70
2022/03/26 06:29:06;;;;;;;36.20;17.12;;;;;;;6.55;56.68;99620.49;1780463;80;21026;-71
2022/03/26 06:31:40;;;;;;;31.12;15.98;;;;;;;6.68;56.51;99618.17;1753447;80;20896;-72
2022/03/26 06:34:07;;;;;;;39.73;17.42;;;;;;;6.81;56.17;99618.84;1780182;80;20939;-70
2022/03/26 06:36:34;;;;;;;30.43;16.60;;;;;;;6.90;55.34;99603.95;1780728;80;21792;-70
2022/03/26 06:39:02;;;;;;;33.63;16.37;;;;;;;6.98;54.79;99606.58;1780424;80;21397;-72
2022/03/26 06:41:29;;;;;;;33.08;16.60;;;;;;;7.06;55.21;99609.23;1780554;80;20911;-72
2022/03/26 06:43:57;;;;;;;28.80;15.80;;;;;;;7.15;55.14;99601.15;1780832;80;20963;-70
2022/03/26 06:46:25;;;;;;;33.67;15.32;;;;;;;7.26;55.14;99603.20;1780746;80;20963;-72
2022/03/26 06:48:51;;;;;;;35.85;16.12;;;;;;;7.35;54.33;99604.19;1780740;80;21769;-70
2022/03/26 06:51:19;;;;;;;30.48;15.70;;;;;;;7.45;54.26;99601.02;1780513;80;20876;-69
2022/03/26 06:53:46;;;;;;;32.05;15.75;;;;;;;7.55;53.92;99594.02;1780673;80;21013;-72
2022/03/26 06:56:13;;;;;;;39.20;18.42;;;;;;;7.66;53.50;99598.77;1780478;80;20931;-70
2022/03/26 06:58:41;;;;;;;37.03;16.82;;;;;;;7.76;53.71;99586.84;1780670;80;21436;-71
2022/03/26 07:01:09;;;;;;;36.90;16.57;;;;;;;7.89;53.23;99585.25;1780545;80;22065;-69
2022/03/26 07:03:36;;;;;;;29.32;15.90;;;;;;;7.99;52.58;99585.62;1752559;80;21014;-70
2022/03/26 07:06:05;;;;;;;29.60;16.48;;;;;;;8.09;52.48;99581.33;1780557;80;21027;-71
2022/03/26 07:08:32;;;;;;;32.83;16.57;;;;;;;8.22;52.50;99583.83;1777496;80;21034;-70
2022/03/26 07:11:00;;;;;;;32.63;18.10;;;;;;;8.33;52.50;99578.98;1780541;80;20967;-72
2022/03/26 07:13:27;;;;;;;39.05;17.55;;;;;;;8.44;51.92;99578.78;1780639;80;21241;-69
2022/03/26 07:15:57;;;;;;;42.65;17.60;;;;;;;8.50;51.81;99581.13;1780400;80;20970;-72
2022/03/26 07:18:26;;;;;;;34.88;17.87;;;;;;;8.55;50.89;99573.37;1779143;80;20907;-71
2022/03/26 07:21:00;;;;;;;37.67;18.10;;;;;;;8.57;51.08;99568.39;1780642;80;20923;-71
2022/03/26 07:23:28;;;;;;;40.85;20.45;;;;;;;8.64;51.32;99565.23;1780359;79;21289;-70
2022/03/26 07:25:59;;;;;;;34.88;18.75;;;;;;;8.72;51.34;99558.20;1779947;80;21807;-69
2022/03/26 07:28:37;;;;;;;36.63;18.73;;;;;;;8.82;50.93;99563.48;1777347;80;20950;-70
2022/03/26 07:31:06;;;;;;;46.80;19.95;;;;;;;8.92;50.80;99561.66;1779800;80;21401;-70
2022/03/26 07:33:34;;;;;;;40.75;17.95;;;;;;;9.00;50.52;99556.25;1780674;80;21504;-70
2022/03/26 07:36:02;;;;;;;45.30;19.32;;;;;;;9.09;50.42;99543.94;1780708;80;20902;-70
2022/03/26 07:38:32;;;;;;;46.50;19.50;;;;;;;9.21;50.56;99544.77;1780546;80;21202;-71
2022/03/26 07:40:59;;;;;;;41.30;18.75;;;;;;;9.35;50.11;99546.66;1780617;80;21018;-70
2022/03/26 07:43:26;;;;;;;36.83;17.42;;;;;;;9.49;49.66;99545.23;1780624;80;21343;-73
2022/03/26 07:45:53;;;;;;;37.28;19.17;;;;;;;9.61;48.77;99542.74;1780588;80;20883;-72
2022/03/26 07:48:23;;;;;;;40.67;20.35;;;;;;;9.69;48.87;99539.79;1780956;80;20928;-69
2022/03/26 07:51:23;;;;;;;44.08;22.93;;;;;;;9.72;48.28;99528.73;1776180;80;20964;-71
2022/03/26 07:53:51;;;;;;;52.90;23.75;;;;;;;9.77;48.25;99519.53;1780997;80;20927;-68
2022/03/26 07:56:21;;;;;;;54.03;23.75;;;;;;;9.89;48.49;99517.02;1780673;79;20931;-69
2022/03/26 07:58:49;;;;;;;45.48;23.00;;;;;;;10.05;48.56;99511.91;1781178;80;21031;-71
2022/03/26 08:01:19;;;;;;;55.88;24.98;;;;;;;10.26;47.96;99507.77;1780491;80;21017;-70
2022/03/26 08:03:53;;;;;;;47.35;24.02;;;;;;;10.45;47.09;99497.87;1781082;80;21101;-72
2022/03/26 08:06:29;;;;;;;48.23;23.73;;;;;;;10.62;46.67;99495.77;1776281;80;20920;-71
2022/03/26 08:09:02;;;;;;;50.40;23.85;;;;;;;10.75;46.15;99479.43;1780870;80;21006;-72
2022/03/26 08:11:40;;;;;;;50.30;24.45;;;;;;;10.83;45.95;99480.00;1780546;80;21597;-72
2022/03/26 08:14:09;;;;;;;52.60;25.32;;;;;;;10.94;45.48;99470.27;1779583;80;21050;-70
2022/03/26 08:16:38;;;;;;;72.27;34.90;;;;;;;11.07;45.89;99473.98;1780730;80;21917;-71
2022/03/26 08:19:13;;;;;;;62.70;32.25;;;;;;;11.26;45.67;99465.16;1769595;78;20944;-73
2022/03/26 08:21:45;;;;;;;51.65;24.20;;;;;;;11.42;44.73;99467.65;1766813;79;20967;-71
2022/03/26 08:24:18;;;;;;;53.50;23.98;;;;;;;11.54;43.27;99454.56;1766288;81;20928;-71
2022/03/26 08:26:45;;;;;;;60.03;23.92;;;;;;;11.57;43.63;99448.94;1747141;81;20911;-69
2022/03/26 08:29:14;;;;;;;55.00;22.32;;;;;;;11.58;42.78;99446.44;1771625;81;21421;-72
2022/03/26 08:31:50;;;;;;;48.23;23.05;;;;;;;11.56;42.70;99448.16;1767084;81;20880;-73
2022/03/26 08:34:34;;;;;;;42.35;21.55;;;;;;;11.55;42.67;99442.94;1766868;81;21039;-72
2022/03/26 08:37:03;;;;;;;45.48;21.30;;;;;;;11.60;43.32;99440.59;1766576;81;20932;-73
2022/03/26 08:39:33;;;;;;;46.30;22.58;;;;;;;11.73;43.55;99441.52;1766614;81;20928;-71
2022/03/26 08:42:14;;;;;;;49.20;23.90;;;;;;;11.93;43.64;99441.36;1767280;81;20872;-70
2022/03/26 08:44:41;;;;;;;44.73;23.47;;;;;;;12.12;42.89;99427.17;1766570;81;20971;-71
2022/03/26 08:47:11;;;;;;;46.35;24.30;;;;;;;12.31;42.78;99434.78;1766510;81;20877;-71
2022/03/26 08:49:38;;;;;;;45.90;21.02;;;;;;;12.41;42.34;99415.06;1766559;81;20948;-70
2022/03/26 08:52:08;;;;;;;44.35;22.65;;;;;;;12.47;42.42;99409.56;1766283;81;20953;-72
2022/03/26 08:54:35;;;;;;;48.48;22.82;;;;;;;12.55;42.29;99406.52;1766378;81;21081;-68
2022/03/26 08:57:14;;;;;;;48.38;23.32;;;;;;;12.66;42.57;99399.44;1763779;81;20856;-70
2022/03/26 08:59:45;;;;;;;48.50;24.30;;;;;;;12.83;42.47;99390.76;1766487;81;21417;-72
2022/03/26 09:02:13;;;;;;;50.67;24.20;;;;;;;12.98;42.28;99377.47;1766801;81;20888;-71
2022/03/26 09:04:40;;;;;;;39.92;21.97;;;;;;;13.06;42.54;99391.78;1772860;81;21066;-72
2022/03/26 09:07:07;;;;;;;43.17;22.67;;;;;;;13.09;42.40;99378.66;1767075;81;21743;-71
2022/03/26 09:09:35;;;;;;;48.42;22.75;;;;;;;13.11;42.65;99376.36;1766274;81;20869;-71
2022/03/26 09:12:04;;;;;;;44.00;23.52;;;;;;;13.19;42.23;99364.14;1766773;81;20876;-71
2022/03/26 09:14:39;;;;;;;49.03;23.62;;;;;;;13.19;42.67;99353.90;1766581;81;20928;-71
2022/03/26 09:17:14;;;;;;;47.70;22.85;;;;;;;13.19;43.46;99355.28;1764747;81;20972;-72
2022/03/26 09:19:44;;;;;;;40.17;23.42;;;;;;;13.23;42.97;99349.88;1763420;81;20960;-72
2022/03/26 09:22:11;;;;;;;56.75;25.62;;;;;;;13.22;43.17;99355.19;1762325;80;21053;-71
2022/03/26 09:24:44;;;;;;;45.73;23.05;;;;;;;13.24;43.36;99344.00;1764409;80;20837;-71
2022/03/26 09:27:14;;;;;;;49.60;24.37;;;;;;;13.24;42.95;99341.23;1762882;81;20979;-72
2022/03/26 09:29:45;;;;;;;45.12;22.22;;;;;;;13.21;43.69;99324.51;1763998;81;20915;-72
2022/03/26 09:32:12;;;;;;;40.12;20.25;;;;;;;13.22;43.76;99326.14;1764340;81;21224;-72
2022/03/26 09:34:39;;;;;;;42.15;21.45;;;;;;;13.27;44.09;99317.63;1764107;81;20975;-73
2022/03/26 09:37:06;;;;;;;40.63;20.48;;;;;;;13.36;44.11;99318.31;1763861;81;20959;-72
2022/03/26 09:39:33;;;;;;;43.65;22.55;;;;;;;13.44;43.87;99321.33;1764352;81;20928;-74
2022/03/26 09:42:01;;;;;;;41.10;21.35;;;;;;;13.41;44.07;99308.19;1763897;81;20944;-69
2022/03/26 09:44:29;;;;;;;44.55;20.48;;;;;;;13.44;44.55;99297.20;1758497;80;21113;-69
2022/03/26 09:46:57;;;;;;;41.35;19.65;;;;;;;13.52;44.50;99307.98;1742508;79;21568;-71
2022/03/26 09:49:24;;;;;;;39.63;20.00;;;;;;;13.59;44.45;99291.61;1795798;79;20916;-73
2022/03/26 09:51:56;;;;;;;36.15;20.75;;;;;;;13.67;44.66;99277.98;1795216;80;20893;-72
2022/03/26 09:54:23;;;;;;;44.63;20.75;;;;;;;13.72;44.27;99269.44;1796017;79;20944;-72
2022/03/26 09:56:50;;;;;;;44.90;19.80;;;;;;;13.80;44.22;99269.89;1795293;79;21261;-72
2022/03/26 09:59:21;;;;;;;46.92;20.27;;;;;;;13.90;43.92;99269.20;1795694;79;20995;-70
2022/03/26 10:01:50;;;;;;;43.45;18.37;;;;;;;13.97;44.06;99246.67;1795581;79;21004;-70
2022/03/26 10:04:22;;;;;;;37.00;19.02;;;;;;;14.05;43.80;99242.16;1795357;80;20972;-72
2022/03/26 10:07:04;;;;;;;42.08;20.52;;;;;;;14.12;43.66;99234.05;1763855;79;21045;-69
2022/03/26 10:09:46;;;;;;;41.98;19.67;;;;;;;14.19;43.66;99226.52;1824478;78;20923;-69
2022/03/26 10:12:24;;;;;;;39.05;19.60;;;;;;;14.30;43.43;99216.32;1826835;78;20890;-71
2022/03/26 10:15:00;;;;;;;41.33;17.67;;;;;;;14.42;43.72;99211.30;1826860;78;20871;-73
2022/03/26 10:17:36;;;;;;;33.78;15.98;;;;;;;14.63;43.05;99219.98;1826654;77;20871;-70
2022/03/26 10:20:06;;;;;;;33.23;16.10;;;;;;;14.78;42.96;99197.59;1837962;77;20930;-71
2022/03/26 10:22:40;;;;;;;34.78;15.72;;;;;;;14.89;42.05;99194.56;1843661;77;21206;-70
2022/03/26 10:25:19;;;;;;;40.75;16.65;;;;;;;14.94;42.18;99182.39;1839782;77;20942;-67
2022/03/26 10:27:51;;;;;;;39.83;17.92;;;;;;;14.92;41.36;99178.59;1843852;77;20984;-68
2022/03/26 10:33:30;;;;;;;43.87;18.90;;;;;;;14.75;41.30;99168.63;1843746;77;20981;-71
2022/03/26 10:36:00;;;;;;;39.23;17.20;;;;;;;14.68;41.72;99161.50;1841178;77;20899;-70
2022/03/26 10:38:47;;;;;;;37.90;16.12;;;;;;;14.60;41.26;99171.01;1843612;77;20957;-72
2022/03/26 10:41:11;;;;;;;53.90;15.75;;;;;;;14.64;41.90;99165.56;1842394;77;21423;-70
2022/03/26 10:43:42;;;;;;;35.33;16.62;;;;;;;14.85;40.88;99139.58;1839764;77;20950;-73
2022/03/26 10:46:14;;;;;;;37.88;15.15;;;;;;;15.00;41.20;99146.27;1843761;77;20955;-71
2022/03/26 10:48:43;;;;;;;33.73;13.98;;;;;;;15.14;40.77;99126.39;1811383;77;21444;-72
2022/03/26 10:51:15;;;;;;;57.45;15.15;;;;;;;15.18;39.97;99138.97;1843894;77;20863;-70
2022/03/26 10:53:46;;;;;;;33.83;12.73;;;;;;;15.11;39.80;99113.81;1843667;77;21546;-71
2022/03/26 10:56:15;;;;;;;27.70;13.38;;;;;;;15.00;39.77;99108.01;1844022;77;21424;-71
2022/03/26 10:58:45;;;;;;;31.00;13.45;;;;;;;14.82;40.46;99109.19;1843644;77;20906;-68
2022/03/26 11:01:25;;;;;;;31.42;12.03;;;;;;;14.69;40.05;99100.14;1838271;77;20986;-73
2022/03/26 11:03:54;;;;;;;32.40;11.35;;;;;;;14.57;39.93;99100.22;1843692;77;21429;-73
2022/03/26 11:06:27;;;;;;;30.70;11.78;;;;;;;14.48;39.94;99086.56;1843932;77;20966;-70
2022/03/26 11:09:04;;;;;;;35.00;11.70;;;;;;;14.44;40.23;99074.57;1838713;77;20914;-70
2022/03/26 11:11:39;;;;;;;39.60;11.30;;;;;;;14.45;40.01;99056.19;1844110;77;20890;-70
2022/03/26 11:14:36;;;;;;;31.23;10.45;;;;;;;14.64;39.66;99042.80;1840038;77;21450;-72
2022/03/26 11:17:16;;;;;;;30.60;10.15;;;;;;;14.91;38.75;99036.11;1843911;77;21057;-70
2022/03/26 11:20:14;;;;;;;29.67;11.55;;;;;;;15.11;37.45;99024.47;1838816;77;20938;-71
2022/03/26 11:23:17;;;;;;;31.60;11.08;;;;;;;15.12;37.88;99015.53;1832066;77;20990;-72
2022/03/26 11:26:31;;;;;;;29.50;12.25;;;;;;;15.22;37.94;99010.80;1809066;78;20882;-71
2022/03/26 11:29:45;;;;;;;34.00;11.60;;;;;;;15.49;38.02;99022.66;1833091;76;21440;-71
2022/03/26 11:32:29;;;;;;;;;;;;;;;15.79;37.71;98995.66;1834573;78;20867;-72
2022/03/26 11:35:06;;;;;;;35.83;9.13;;;;;;;16.00;37.01;98987.53;1827904;78;20076;-73
2022/03/26 11:37:35;;;;;;;35.45;10.13;;;;;;;16.05;37.46;98993.56;1832278;78;20879;-70
2022/03/26 11:40:05;;;;;;;43.73;10.78;;;;;;;16.00;36.23;98987.53;1831950;77;20932;-70
2022/03/26 11:42:37;;;;;;;33.98;10.68;;;;;;;15.79;36.50;98974.25;1809538;78;21905;-72
2022/03/26 11:51:17;;;;;;;21.73;7.87;;;;;;;15.38;37.55;98936.38;1832270;78;20958;-72